Gujrat, Pakistan
Current Conditions -  °F | °C
As of 11:55 PM on Friday 31 Oct 2014 (Local Time) from OPLA Reporting Station
Smoke Smoke  
Wind Chill: 68°   Ceiling: Unl
Heat Index: 68°   Visibility: 2.5mi
Dew Point: 55°   Wind: 0mph
Humidity: 64%   Direction: NA
Pressure: NA   Gusts: NA
Location:  32.58°N, 74.07°E
Report Text: OPLA 311855Z 00000KT 4000 FU NSC 20/13 Q1015/A29.99 NOSIG
Loading
Personal Weather Stations






























Interactive Weather Map
Tropical Storm Tracking
New forecast layout! Learn more

10-Day Weather Forecast

Advertisements
Track Severe Weather on mobile